createdAt,value
2023-05-12T00:01:15.857Z,72.11
2023-05-12T00:06:17.721Z,71.44
2023-05-12T00:11:19.621Z,70.86
2023-05-12T00:16:21.598Z,70.09
2023-05-12T00:21:23.486Z,69.04
2023-05-12T00:26:25.411Z,68.74
2023-05-12T00:31:27.341Z,68.79
2023-05-12T00:36:29.260Z,68.76
2023-05-12T00:41:31.176Z,68.44
2023-05-12T00:46:33.151Z,68.84
2023-05-12T00:51:35.070Z,69.40
2023-05-12T00:56:36.880Z,69.72
2023-05-12T01:01:38.750Z,69.97
2023-05-12T01:06:56.785Z,69.36
2023-05-12T01:11:58.736Z,69.17
2023-05-12T01:17:01.649Z,69.49
2023-05-12T01:22:03.746Z,69.56
2023-05-12T01:27:05.855Z,69.08
2023-05-12T01:32:08.108Z,69.04
2023-05-12T01:37:10.604Z,69.41
2023-05-12T01:42:12.249Z,70.73
2023-05-12T01:47:14.297Z,70.72
2023-05-12T01:52:16.162Z,71.36
2023-05-12T01:57:18.335Z,71.28
2023-05-12T02:02:20.185Z,71.45
2023-05-12T02:07:22.105Z,71.20
2023-05-12T02:12:23.937Z,70.62
2023-05-12T02:17:25.907Z,69.43
2023-05-12T02:22:27.980Z,64.14
2023-05-12T02:27:29.825Z,59.64
2023-05-12T02:32:31.779Z,55.42
2023-05-12T02:37:33.696Z,50.04
2023-05-12T02:42:35.810Z,47.75
2023-05-12T02:47:37.865Z,47.40
2023-05-12T02:52:39.905Z,47.18
2023-05-12T02:57:41.908Z,45.20
2023-05-12T03:02:43.817Z,46.31
2023-05-12T03:07:45.750Z,46.61
2023-05-12T03:12:47.648Z,47.91
2023-05-12T03:17:49.617Z,48.14
2023-05-12T03:22:51.721Z,48.55
2023-05-12T03:27:53.676Z,48.94
2023-05-12T03:32:55.710Z,49.68
2023-05-12T03:37:57.709Z,48.85
2023-05-12T03:42:59.647Z,48.58
2023-05-12T03:48:01.580Z,48.69
2023-05-12T03:53:03.622Z,48.89
2023-05-12T03:58:05.475Z,48.10
2023-05-12T04:03:07.708Z,46.48
2023-05-12T04:08:09.777Z,44.83
2023-05-12T04:13:12.217Z,39.14
2023-05-12T04:18:14.399Z,39.14
2023-05-12T04:23:16.326Z,39.73
2023-05-12T04:28:18.267Z,36.70
2023-05-12T04:33:21.445Z,30.71
2023-05-12T04:38:23.300Z,27.24
2023-05-12T04:48:29.899Z,24.62
2023-05-12T04:53:31.960Z,22.11
2023-05-12T04:58:33.793Z,20.57
2023-05-12T05:03:35.720Z,19.87
2023-05-12T05:08:37.672Z,19.14
2023-05-12T05:13:39.499Z,18.92
2023-05-12T05:18:41.357Z,18.63
2023-05-12T05:23:43.461Z,17.24
2023-05-12T05:28:45.250Z,16.90
2023-05-12T05:33:47.120Z,16.52
2023-05-12T05:38:48.997Z,15.63
2023-05-12T05:43:50.798Z,14.14
2023-05-12T05:48:52.655Z,14.06
2023-05-12T05:53:54.518Z,13.29
2023-05-12T05:58:56.345Z,12.45
2023-05-12T06:03:58.219Z,11.67
2023-05-12T06:09:00.078Z,11.55
2023-05-12T06:14:02.019Z,11.88
2023-05-12T06:19:04.137Z,11.10
2023-05-12T06:24:06.192Z,10.79
2023-05-12T06:29:07.993Z,10.38
2023-05-12T06:34:09.914Z,9.37
2023-05-12T06:39:11.860Z,10.62
2023-05-12T06:44:13.688Z,9.30
2023-05-12T06:49:15.645Z,9.37
2023-05-12T06:54:17.506Z,9.76
2023-05-12T06:59:21.285Z,9.50
2023-05-12T07:04:23.675Z,9.74
2023-05-12T07:09:26.892Z,8.90
2023-05-12T07:14:28.720Z,9.24
2023-05-12T07:19:30.617Z,8.17
2023-05-12T07:24:32.636Z,8.70
2023-05-12T07:29:34.513Z,8.90
2023-05-12T07:34:36.321Z,8.85
2023-05-12T07:39:38.237Z,7.70
2023-05-12T07:44:40.153Z,8.20
2023-05-12T07:49:42.072Z,7.67
2023-05-12T07:54:44.063Z,7.62
2023-05-12T07:59:45.880Z,9.29
2023-05-12T08:04:47.785Z,13.73
2023-05-12T08:09:49.719Z,15.71
2023-05-12T08:14:51.638Z,17.40
2023-05-12T08:19:53.659Z,17.92
2023-05-12T08:24:55.593Z,18.73
2023-05-12T08:29:57.668Z,17.91
2023-05-12T08:35:00.881Z,18.42
2023-05-12T08:40:02.765Z,19.27
2023-05-12T08:45:06.919Z,18.99
2023-05-12T08:50:09.676Z,19.82
2023-05-12T08:55:11.571Z,19.92
2023-05-12T09:00:13.865Z,20.53
2023-05-12T09:05:15.768Z,20.28
2023-05-12T09:10:32.755Z,20.13
2023-05-12T09:15:39.467Z,20.69
2023-05-12T09:20:41.312Z,21.00
2023-05-12T09:25:43.137Z,21.12
2023-05-12T09:30:44.999Z,21.49
2023-05-12T09:35:46.852Z,20.56
2023-05-12T09:40:48.842Z,21.05
2023-05-12T09:45:50.777Z,20.56
2023-05-12T09:50:52.636Z,20.50
2023-05-12T09:55:54.586Z,20.85
2023-05-12T10:01:17.870Z,20.80
2023-05-12T10:06:30.318Z,20.96
2023-05-12T10:11:32.471Z,20.42
2023-05-12T10:16:34.381Z,20.19
2023-05-12T10:21:36.699Z,20.42
2023-05-12T10:26:38.601Z,20.54
2023-05-12T10:31:40.583Z,20.45
2023-05-12T10:36:49.636Z,20.24
2023-05-12T10:42:09.767Z,20.64
2023-05-12T10:47:14.914Z,20.20
2023-05-12T10:52:19.972Z,21.27
2023-05-12T10:57:22.303Z,21.49
2023-05-12T11:02:26.545Z,21.71
2023-05-12T11:07:32.649Z,20.92
2023-05-12T11:12:35.288Z,20.55
2023-05-12T11:17:40.711Z,20.56
2023-05-12T11:22:42.888Z,20.78
2023-05-12T11:27:52.644Z,20.52
2023-05-12T11:33:04.236Z,20.27
2023-05-12T11:38:20.181Z,20.88
2023-05-12T11:43:22.283Z,21.39
2023-05-12T11:48:33.114Z,21.31
2023-05-12T11:53:40.290Z,20.69
2023-05-12T11:58:55.527Z,20.65
2023-05-12T12:03:57.691Z,20.62
2023-05-12T12:08:59.920Z,20.81
2023-05-12T12:14:02.203Z,20.88
2023-05-12T12:19:04.140Z,21.54
2023-05-12T12:24:06.446Z,21.31
2023-05-12T12:29:08.356Z,21.32
2023-05-12T12:34:10.757Z,21.38
2023-05-12T12:39:12.694Z,21.31
2023-05-12T12:44:14.628Z,21.25
2023-05-12T12:49:16.583Z,20.81
2023-05-12T12:54:18.333Z,20.62
2023-05-12T12:59:20.178Z,20.70
2023-05-12T13:04:22.218Z,20.92
2023-05-12T13:09:24.579Z,20.92
2023-05-12T13:14:26.605Z,21.25
2023-05-12T13:19:28.561Z,21.34
2023-05-12T13:24:30.547Z,22.05
2023-05-12T13:29:32.834Z,21.71
2023-05-12T13:34:36.014Z,21.58
2023-05-12T13:39:38.055Z,21.44
2023-05-12T13:44:40.069Z,21.60
2023-05-12T13:49:42.038Z,22.32
2023-05-12T13:54:44.512Z,22.87
2023-05-12T13:59:46.634Z,22.76
2023-05-12T14:04:48.852Z,23.36
2023-05-12T14:09:50.874Z,23.60
2023-05-12T14:14:52.893Z,23.98
2023-05-12T14:19:54.888Z,23.60
2023-05-12T14:24:56.929Z,23.77
2023-05-12T14:29:59.585Z,23.64
2023-05-12T14:35:01.679Z,23.05
2023-05-12T14:40:06.921Z,23.15
2023-05-12T14:45:09.302Z,23.21
2023-05-12T14:50:11.585Z,23.17
2023-05-12T14:55:13.577Z,23.32
2023-05-12T15:00:16.203Z,23.71
2023-05-12T15:05:19.042Z,23.32
2023-05-12T15:10:21.252Z,23.45
2023-05-12T15:15:23.622Z,22.99
2023-05-12T15:20:25.676Z,22.77
2023-05-12T15:25:27.726Z,22.31
2023-05-12T15:30:29.644Z,22.57
2023-05-12T15:35:32.194Z,22.53
2023-05-12T15:40:34.130Z,22.74
2023-05-12T15:45:35.789Z,23.76
2023-05-12T15:50:38.219Z,23.69
2023-05-12T15:55:40.230Z,24.05
2023-05-12T16:00:42.277Z,24.16
2023-05-12T16:05:45.016Z,24.74
2023-05-12T16:10:47.179Z,24.92
2023-05-12T16:15:52.514Z,24.88
2023-05-12T16:20:54.368Z,24.80
2023-05-12T16:25:56.255Z,24.89
2023-05-12T16:30:58.023Z,24.52
2023-05-12T16:35:59.895Z,24.29
2023-05-12T16:41:01.617Z,24.15
2023-05-12T16:46:03.772Z,24.36
2023-05-12T16:51:07.132Z,24.41
2023-05-12T16:56:09.411Z,24.84
2023-05-12T17:01:11.289Z,24.78
2023-05-12T17:06:13.214Z,24.90
2023-05-12T17:11:15.085Z,25.22
2023-05-12T17:16:17.005Z,25.20
2023-05-12T17:21:18.858Z,25.42
2023-05-12T17:26:20.793Z,25.74
2023-05-12T17:31:22.737Z,26.24
2023-05-12T17:36:24.609Z,26.26
2023-05-12T17:41:28.342Z,26.24
2023-05-12T17:46:31.235Z,26.59
2023-05-12T17:51:33.201Z,26.50
2023-05-12T17:56:35.121Z,26.76
2023-05-12T18:01:37.134Z,26.95
2023-05-12T18:06:39.186Z,27.31
2023-05-12T18:11:41.078Z,27.24
2023-05-12T18:16:43.020Z,27.48
2023-05-12T18:21:44.998Z,27.55
2023-05-12T18:26:46.962Z,27.68
2023-05-12T18:31:48.948Z,27.65
2023-05-12T18:36:51.028Z,28.07
2023-05-12T18:41:54.134Z,28.17
2023-05-12T18:46:56.206Z,28.71
2023-05-12T18:51:58.825Z,29.38
2023-05-12T18:57:01.503Z,29.61
2023-05-12T19:02:03.488Z,29.90
2023-05-12T19:07:05.542Z,29.27
2023-05-12T19:12:08.232Z,29.41
2023-05-12T19:17:10.289Z,29.37
2023-05-12T19:22:12.134Z,29.40
2023-05-12T19:27:14.109Z,29.98
2023-05-12T19:32:16.116Z,30.26
2023-05-12T19:37:18.449Z,31.39
2023-05-12T19:42:20.280Z,30.71
2023-05-12T19:47:22.215Z,31.45
2023-05-12T19:52:24.622Z,31.73
2023-05-12T19:57:26.302Z,32.18
2023-05-12T20:02:28.197Z,32.85
2023-05-12T20:07:30.240Z,32.59
2023-05-12T20:12:32.173Z,32.14
2023-05-12T20:17:34.187Z,32.87
2023-05-12T20:22:36.096Z,34.13
2023-05-12T20:27:38.043Z,35.88
2023-05-12T20:32:39.976Z,37.03
2023-05-12T20:37:41.929Z,37.00
2023-05-12T20:42:48.302Z,36.46
2023-05-12T20:47:50.235Z,36.33
2023-05-12T20:52:52.329Z,36.15
2023-05-12T20:57:54.330Z,35.57
2023-05-12T21:02:56.412Z,36.53
2023-05-12T21:07:59.007Z,37.41
2023-05-12T21:13:00.619Z,38.05
2023-05-12T21:18:02.578Z,37.89
2023-05-12T21:23:04.559Z,38.03
2023-05-12T21:28:08.869Z,37.90
2023-05-12T21:33:10.845Z,38.33
2023-05-12T21:38:12.874Z,38.25
2023-05-12T21:43:14.826Z,37.82
2023-05-12T21:48:16.808Z,38.16
2023-05-12T21:53:18.792Z,38.23
2023-05-12T21:58:20.932Z,38.46
2023-05-12T22:03:22.926Z,39.48
2023-05-12T22:08:24.822Z,38.66
2023-05-12T22:13:26.717Z,39.66
2023-05-12T22:18:28.710Z,38.81
2023-05-12T22:23:30.654Z,38.81
2023-05-12T22:28:32.753Z,39.22
2023-05-12T22:33:34.858Z,39.18
2023-05-12T22:38:36.865Z,39.15
2023-05-12T22:43:38.743Z,39.08
2023-05-12T22:48:40.646Z,39.06
2023-05-12T22:53:42.533Z,39.14
2023-05-12T22:58:44.451Z,39.11
2023-05-12T23:03:46.401Z,39.18
2023-05-12T23:08:48.390Z,39.29
2023-05-12T23:13:50.333Z,39.02
2023-05-12T23:18:52.451Z,39.21
2023-05-12T23:23:54.488Z,39.29
2023-05-12T23:28:56.473Z,39.08
2023-05-12T23:33:58.357Z,39.32
2023-05-12T23:39:00.332Z,39.42
2023-05-12T23:44:02.619Z,39.59
2023-05-12T23:49:04.822Z,39.57
2023-05-12T23:54:06.725Z,40.10
2023-05-12T23:59:08.626Z,40.82
